createdAt,value
2022-10-28T00:01:04.952Z,101685.34
2022-10-28T00:03:33.123Z,101688.31
2022-10-28T00:06:05.039Z,101685.59
2022-10-28T00:08:32.854Z,101683.94
2022-10-28T00:11:08.549Z,101681.22
2022-10-28T00:13:36.836Z,101681.47
2022-10-28T00:16:08.559Z,101691.50
2022-10-28T00:18:36.375Z,101685.72
2022-10-28T00:21:06.724Z,101679.25
2022-10-28T00:23:34.469Z,101691.97
2022-10-28T00:26:07.482Z,101684.91
2022-10-28T00:28:35.248Z,101683.84
2022-10-28T00:31:09.504Z,101685.97
2022-10-28T00:33:37.283Z,101685.16
2022-10-28T00:36:09.938Z,101678.06
2022-10-28T00:38:37.711Z,101679.97
2022-10-28T00:41:06.089Z,101682.66
2022-10-28T00:43:35.625Z,101679.13
2022-10-28T00:46:03.861Z,101680.19
2022-10-28T00:48:32.956Z,101686.44
2022-10-28T00:51:01.103Z,101668.53
2022-10-28T00:53:32.298Z,101671.47
2022-10-28T00:56:02.540Z,101667.13
2022-10-28T00:58:30.610Z,101651.22
2022-10-28T01:00:58.316Z,101659.22
2022-10-28T01:03:26.239Z,101652.16
2022-10-28T01:05:56.344Z,101651.31
2022-10-28T01:08:24.021Z,101649.66
2022-10-28T01:11:18.082Z,101648.84
2022-10-28T01:13:58.059Z,101646.38
2022-10-28T01:16:34.561Z,101651.78
2022-10-28T01:19:42.806Z,101648.50
2022-10-28T01:22:17.551Z,101641.44
2022-10-28T01:25:12.388Z,101646.03
2022-10-28T01:28:08.065Z,101641.91
2022-10-28T01:30:48.455Z,101637.53
2022-10-28T01:33:24.938Z,101638.59
2022-10-28T01:35:56.163Z,101634.00
2022-10-28T01:38:32.760Z,101632.34
2022-10-28T01:41:09.361Z,101632.59
2022-10-28T01:43:42.282Z,101630.72
2022-10-28T01:46:16.455Z,101628.00
2022-10-28T01:48:52.074Z,101628.25
2022-10-28T01:51:26.400Z,101632.84
2022-10-28T01:53:57.970Z,101631.19
2022-10-28T01:56:30.398Z,101639.31
2022-10-28T01:59:01.854Z,101627.66
2022-10-28T02:01:32.030Z,101632.25
2022-10-28T02:04:01.201Z,101627.91
2022-10-28T02:06:32.195Z,101631.66
2022-10-28T02:09:20.215Z,101631.66
2022-10-28T02:12:23.453Z,101633.56
2022-10-28T02:15:34.204Z,101621.06
2022-10-28T02:18:11.606Z,101621.06
2022-10-28T02:20:50.313Z,101616.59
2022-10-28T02:23:33.278Z,101621.06
2022-10-28T02:26:05.669Z,101620.25
2022-10-28T02:28:40.148Z,101615.88
2022-10-28T02:31:19.118Z,101622.13
2022-10-28T02:33:51.646Z,101622.94
2022-10-28T02:36:24.682Z,101624.00
2022-10-28T02:38:55.969Z,101625.06
2022-10-28T02:41:27.951Z,101604.09
2022-10-28T02:43:58.474Z,101613.41
2022-10-28T02:46:29.566Z,101608.81
2022-10-28T02:49:02.475Z,101612.56
2022-10-28T02:51:35.979Z,101611.75
2022-10-28T02:54:07.510Z,101615.28
2022-10-28T02:56:39.620Z,101617.19
2022-10-28T02:59:11.098Z,101608.22
2022-10-28T03:01:38.938Z,101610.94
2022-10-28T03:04:07.461Z,101610.09
2022-10-28T03:06:36.459Z,101609.28
2022-10-28T03:09:04.234Z,101608.47
2022-10-28T03:11:31.920Z,101611.16
2022-10-28T03:13:59.560Z,101604.09
2022-10-28T03:16:27.775Z,101602.44
2022-10-28T03:18:55.721Z,101603.50
2022-10-28T03:21:23.420Z,101601.63
2022-10-28T03:23:52.427Z,101608.09
2022-10-28T03:26:20.093Z,101605.41
2022-10-28T03:28:48.013Z,101610.22
2022-10-28T03:31:17.132Z,101604.81
2022-10-28T03:33:44.907Z,101606.69
2022-10-28T03:36:12.534Z,101614.84
2022-10-28T03:38:40.221Z,101606.13
2022-10-28T03:41:09.223Z,101600.94
2022-10-28T03:43:36.885Z,101607.19
2022-10-28T03:46:04.555Z,101603.66
2022-10-28T03:48:32.198Z,101593.03
2022-10-28T03:51:00.063Z,101596.56
2022-10-28T03:53:30.484Z,101594.09
2022-10-28T03:56:00.712Z,101582.31
2022-10-28T03:58:30.328Z,101597.88
2022-10-28T04:00:58.205Z,101596.22
2022-10-28T04:03:26.856Z,101588.91
2022-10-28T04:05:54.484Z,101594.56
2022-10-28T04:08:22.568Z,101606.25
2022-10-28T04:10:50.355Z,101582.69
2022-10-28T04:13:18.510Z,101611.66
2022-10-28T04:15:47.546Z,101605.41
2022-10-28T04:18:15.254Z,101605.66
2022-10-28T04:20:42.963Z,101606.47
2022-10-28T04:23:15.723Z,101602.94
2022-10-28T04:25:43.592Z,101605.66
2022-10-28T04:28:11.272Z,101600.72
2022-10-28T04:30:38.977Z,101606.72
2022-10-28T04:33:08.044Z,101601.28
2022-10-28T04:35:35.707Z,101606.72
2022-10-28T04:38:03.351Z,101604.00
2022-10-28T04:40:30.998Z,101605.91
2022-10-28T04:42:58.653Z,101609.66
2022-10-28T04:45:26.406Z,101602.59
2022-10-28T04:47:58.141Z,101604.47
2022-10-28T04:50:28.392Z,101605.53
2022-10-28T04:52:56.338Z,101601.78
2022-10-28T04:55:24.244Z,101606.38
2022-10-28T04:57:56.162Z,101600.94
2022-10-28T05:00:23.989Z,101604.72
2022-10-28T05:02:51.695Z,101602.00
2022-10-28T05:05:19.729Z,101601.19
2022-10-28T05:07:48.806Z,101603.91
2022-10-28T05:10:18.026Z,101597.06
2022-10-28T05:12:46.593Z,101604.38
2022-10-28T05:15:15.782Z,101607.06
2022-10-28T05:17:45.084Z,101607.91
2022-10-28T05:20:13.791Z,101601.91
2022-10-28T05:22:47.840Z,101597.78
2022-10-28T05:25:15.924Z,101601.06
2022-10-28T05:27:43.868Z,101600.25
2022-10-28T05:30:12.539Z,101604.84
2022-10-28T05:32:40.386Z,101594.00
2022-10-28T05:35:08.979Z,101590.47
2022-10-28T05:37:36.732Z,101592.59
2022-10-28T05:40:06.459Z,101588.00
2022-10-28T05:42:34.087Z,101581.75
2022-10-28T05:45:01.735Z,101585.56
2022-10-28T05:47:29.415Z,101592.84
2022-10-28T05:49:57.047Z,101592.84
2022-10-28T05:52:24.703Z,101590.38
2022-10-28T05:54:52.319Z,101595.81
2022-10-28T05:57:21.347Z,101594.75
2022-10-28T05:59:48.976Z,101595.81
2022-10-28T06:02:16.669Z,101603.09
2022-10-28T06:04:44.315Z,101605.00
2022-10-28T06:07:11.995Z,101597.91
2022-10-28T06:09:39.629Z,101603.09
2022-10-28T06:12:06.792Z,101599.56
2022-10-28T06:14:35.795Z,101607.09
2022-10-28T06:17:03.571Z,101601.44
2022-10-28T06:19:31.261Z,101599.78
2022-10-28T06:21:58.908Z,101601.66
2022-10-28T06:24:26.581Z,101602.72
2022-10-28T06:26:54.218Z,101606.25
2022-10-28T06:29:21.890Z,101604.63
2022-10-28T06:31:50.988Z,101602.97
2022-10-28T06:34:19.482Z,101603.78
2022-10-28T06:36:47.151Z,101600.25
2022-10-28T06:39:14.846Z,101602.97
2022-10-28T06:41:42.912Z,101597.78
2022-10-28T06:44:10.589Z,101597.78
2022-10-28T06:46:39.766Z,101604.03
2022-10-28T06:49:09.108Z,101611.31
2022-10-28T06:51:36.798Z,101604.25
2022-10-28T06:54:04.549Z,101598.00
2022-10-28T06:56:32.169Z,101608.03
2022-10-28T06:58:59.838Z,101604.50
2022-10-28T07:01:27.621Z,101598.00
2022-10-28T07:03:55.400Z,101607.19
2022-10-28T07:06:24.399Z,101606.38
2022-10-28T07:08:52.702Z,101614.50
2022-10-28T07:11:20.357Z,101609.09
2022-10-28T07:13:49.003Z,101611.78
2022-10-28T07:16:16.835Z,101598.97
2022-10-28T07:18:44.574Z,101614.75
2022-10-28T07:21:12.331Z,101617.44
2022-10-28T07:23:41.435Z,101614.50
2022-10-28T07:26:09.097Z,101619.34
2022-10-28T07:28:36.785Z,101621.81
2022-10-28T07:31:05.146Z,101624.75
2022-10-28T07:33:32.874Z,101629.94
2022-10-28T07:36:00.540Z,101631.81
2022-10-28T07:38:28.199Z,101627.22
2022-10-28T07:40:57.262Z,101625.34
2022-10-28T07:43:24.932Z,101623.47
2022-10-28T07:45:56.971Z,101619.69
2022-10-28T07:48:24.766Z,101600.97
2022-10-28T07:50:52.428Z,101609.69
2022-10-28T07:53:21.748Z,101601.78
2022-10-28T07:55:58.011Z,101601.53
2022-10-28T07:58:25.839Z,101602.59
2022-10-28T08:00:54.100Z,101608.84
2022-10-28T08:03:22.217Z,101611.31
2022-10-28T08:05:50.412Z,101611.31
2022-10-28T08:08:18.068Z,101614.63
2022-10-28T08:10:45.715Z,101615.44
2022-10-28T08:13:14.740Z,101617.34
2022-10-28T08:15:42.406Z,101611.09
2022-10-28T08:18:10.079Z,101621.47
2022-10-28T08:20:37.728Z,101623.09
2022-10-28T08:23:07.397Z,101632.91
2022-10-28T08:25:35.285Z,101631.84
2022-10-28T08:28:02.916Z,101636.22
2022-10-28T08:30:40.291Z,101628.09
2022-10-28T08:33:12.663Z,101635.13
2022-10-28T08:35:40.375Z,101630.53
2022-10-28T08:38:08.040Z,101631.34
2022-10-28T08:40:44.672Z,101630.53
2022-10-28T08:43:30.363Z,101629.22
2022-10-28T08:46:15.042Z,101626.53
2022-10-28T08:48:43.971Z,101622.50
2022-10-28T08:51:15.507Z,101623.34
2022-10-28T08:53:48.812Z,101613.31
2022-10-28T08:56:23.460Z,101617.69
2022-10-28T08:58:54.704Z,101623.94
2022-10-28T09:01:36.378Z,101615.56
2022-10-28T09:04:08.211Z,101630.75
2022-10-28T09:06:35.858Z,101628.03
2022-10-28T09:09:03.586Z,101626.16
2022-10-28T09:11:52.188Z,101635.47
2022-10-28T09:14:37.288Z,101635.47
2022-10-28T09:17:17.986Z,101636.06
2022-10-28T09:19:49.886Z,101634.16
2022-10-28T09:22:24.467Z,101637.22
2022-10-28T09:24:55.012Z,101645.13
2022-10-28T09:27:45.292Z,101645.94
2022-10-28T09:30:27.539Z,101645.47
2022-10-28T09:33:08.590Z,101639.81
2022-10-28T09:35:41.198Z,101646.88
2022-10-28T09:38:19.424Z,101639.34
2022-10-28T09:40:53.823Z,101656.31
2022-10-28T09:43:26.440Z,101651.59
2022-10-28T09:45:59.101Z,101650.38
2022-10-28T09:48:30.616Z,101641.78
2022-10-28T09:50:59.736Z,101641.28
2022-10-28T09:53:39.825Z,101633.03
2022-10-28T09:58:37.580Z,101642.47
2022-10-28T10:01:05.707Z,101645.19
2022-10-28T10:03:34.857Z,101659.56
2022-10-28T10:06:10.966Z,101659.91
2022-10-28T10:08:40.324Z,101652.47
2022-10-28T10:11:15.956Z,101647.38
2022-10-28T10:13:44.993Z,101655.50
2022-10-28T10:16:18.288Z,101655.22
2022-10-28T10:18:52.298Z,101662.56
2022-10-28T10:21:45.230Z,101655.22
2022-10-28T10:24:33.444Z,101654.03
2022-10-28T10:27:03.336Z,101651.31
2022-10-28T10:29:32.229Z,101650.25
2022-10-28T10:32:09.666Z,101650.50
2022-10-28T10:34:37.465Z,101652.38
2022-10-28T10:37:06.527Z,101635.50
2022-10-28T10:39:38.161Z,101635.13
2022-10-28T10:42:16.952Z,101636.19
2022-10-28T10:44:44.869Z,101640.78
2022-10-28T10:47:19.907Z,101632.41
2022-10-28T10:49:49.697Z,101624.28
2022-10-28T10:52:22.748Z,101629.34
2022-10-28T10:55:00.737Z,101627.97
2022-10-28T10:57:28.676Z,101621.31
2022-10-28T10:59:57.858Z,101619.75
2022-10-28T11:02:28.500Z,101627.16
2022-10-28T11:05:00.596Z,101624.28
2022-10-28T11:07:30.641Z,101624.13
2022-10-28T11:09:58.443Z,101631.44
2022-10-28T11:12:30.220Z,101619.03
2022-10-28T11:14:59.660Z,101614.16
2022-10-28T11:17:29.389Z,101607.66
2022-10-28T11:19:59.521Z,101612.94
2022-10-28T11:22:41.939Z,101614.16
2022-10-28T11:25:28.267Z,101611.03
2022-10-28T11:28:07.555Z,101612.44
2022-10-28T11:30:46.205Z,101616.81
2022-10-28T11:33:33.585Z,101610.88
2022-10-28T11:36:15.851Z,101618.03
2022-10-28T11:39:18.699Z,101613.91
2022-10-28T11:41:56.929Z,101617.47
2022-10-28T11:44:37.492Z,101615.56
2022-10-28T11:47:21.521Z,101615.56
2022-10-28T11:50:16.061Z,101615.06
2022-10-28T11:53:02.731Z,101622.78
2022-10-28T11:55:36.949Z,101612.47
2022-10-28T11:58:16.828Z,101622.28
2022-10-28T12:01:05.495Z,101626.06
2022-10-28T12:04:01.246Z,101637.25
2022-10-28T12:06:58.703Z,101635.38
2022-10-28T12:09:35.149Z,101623.09
2022-10-28T12:12:22.403Z,101631.66
2022-10-28T12:14:59.144Z,101631.50
2022-10-28T12:17:35.684Z,101630.41
2022-10-28T12:20:06.320Z,101631.31
2022-10-28T12:22:41.906Z,101630.00
2022-10-28T12:25:16.604Z,101626.81
2022-10-28T12:27:50.364Z,101631.44
2022-10-28T12:30:22.636Z,101636.63
2022-10-28T12:32:55.698Z,101640.41
2022-10-28T12:35:26.712Z,101630.34
2022-10-28T12:38:02.092Z,101625.50
2022-10-28T12:40:36.653Z,101617.84
2022-10-28T12:43:12.057Z,101638.59
2022-10-28T12:45:42.556Z,101638.59
2022-10-28T12:48:18.186Z,101638.59
2022-10-28T12:50:50.599Z,101632.31
2022-10-28T12:53:29.480Z,101644.53
2022-10-28T12:56:00.382Z,101641.81
2022-10-28T12:58:34.036Z,101643.78
2022-10-28T13:01:05.345Z,101653.81
2022-10-28T13:03:33.217Z,101661.97
2022-10-28T13:06:22.762Z,101654.97
2022-10-28T13:09:12.013Z,101666.91
2022-10-28T13:12:10.023Z,101660.41
2022-10-28T13:17:57.448Z,101666.88
2022-10-28T13:20:39.558Z,101674.72
2022-10-28T13:23:20.540Z,101668.22
2022-10-28T13:26:12.637Z,101677.50
2022-10-28T13:28:46.619Z,101670.44
2022-10-28T13:31:16.385Z,101677.75
2022-10-28T13:33:53.099Z,101682.13
2022-10-28T13:36:26.462Z,101685.44
2022-10-28T13:38:58.422Z,101686.50
2022-10-28T13:41:35.138Z,101701.16
2022-10-28T13:44:30.685Z,101701.16
2022-10-28T13:47:25.845Z,101709.09
2022-10-28T13:50:16.248Z,101703.38
2022-10-28T13:52:45.424Z,101703.38
2022-10-28T13:55:23.388Z,101697.94
2022-10-28T13:57:53.777Z,101706.69
2022-10-28T14:00:38.643Z,101709.41
2022-10-28T14:03:19.519Z,101708.41
2022-10-28T14:05:57.131Z,101724.81
2022-10-28T14:08:29.598Z,101708.41
2022-10-28T14:11:04.632Z,101718.28
2022-10-28T14:13:35.391Z,101723.16
2022-10-28T14:16:20.118Z,101716.06
2022-10-28T14:18:56.674Z,101713.59
2022-10-28T14:21:24.589Z,101718.22
2022-10-28T14:24:09.258Z,101707.34
2022-10-28T14:27:30.997Z,101726.94
2022-10-28T14:30:18.809Z,101723.16
2022-10-28T14:32:59.979Z,101724.22
2022-10-28T14:35:34.714Z,101724.22
2022-10-28T14:38:52.881Z,101716.88
2022-10-28T14:41:46.855Z,101724.81
2022-10-28T14:44:33.850Z,101725.38
2022-10-28T14:47:21.378Z,101725.38
2022-10-28T14:50:01.601Z,101737.06
2022-10-28T14:52:35.190Z,101747.13
2022-10-28T14:55:06.667Z,101747.97
2022-10-28T14:57:35.740Z,101739.47
2022-10-28T15:00:07.557Z,101740.88
2022-10-28T15:02:38.380Z,101750.69
2022-10-28T15:05:16.844Z,101755.31
2022-10-28T15:07:46.201Z,101749.84
2022-10-28T15:10:16.152Z,101750.69
2022-10-28T15:12:45.527Z,101754.22
2022-10-28T15:15:20.918Z,101754.47
2022-10-28T15:17:49.411Z,101749.84
2022-10-28T15:20:24.029Z,101752.56
2022-10-28T15:22:54.530Z,101755.56
2022-10-28T15:25:23.588Z,101751.69
2022-10-28T15:27:53.086Z,101765.94
2022-10-28T15:30:23.723Z,101771.69
2022-10-28T15:32:52.306Z,101772.53
2022-10-28T15:35:38.134Z,101766.25
2022-10-28T15:38:32.948Z,101763.28
2022-10-28T15:41:00.845Z,101773.09
2022-10-28T15:43:29.917Z,101771.19
2022-10-28T15:46:10.370Z,101774.75
2022-10-28T15:48:38.667Z,101782.09
2022-10-28T15:51:13.979Z,101774.75
2022-10-28T15:53:43.684Z,101773.91
2022-10-28T15:56:23.494Z,101777.47
2022-10-28T15:59:07.111Z,101773.91
2022-10-28T16:01:41.539Z,101767.66
2022-10-28T16:04:44.847Z,101772.03
2022-10-28T16:07:12.971Z,101772.03
2022-10-28T16:09:47.950Z,101790.00
2022-10-28T16:12:18.305Z,101795.44
2022-10-28T16:14:50.635Z,101803.59
2022-10-28T16:17:23.027Z,101801.94
2022-10-28T16:19:53.458Z,101812.00
2022-10-28T16:22:22.343Z,101816.63
2022-10-28T16:24:53.163Z,101814.72
2022-10-28T16:27:22.561Z,101807.66
2022-10-28T16:29:50.834Z,101825.03
2022-10-28T16:32:20.686Z,101831.31
2022-10-28T16:34:48.368Z,101837.00
2022-10-28T16:37:22.865Z,101837.81
2022-10-28T16:39:52.023Z,101846.22
2022-10-28T16:42:21.011Z,101833.69
2022-10-28T16:44:48.742Z,101835.84
2022-10-28T16:47:17.839Z,101835.03
2022-10-28T16:49:45.757Z,101821.66
2022-10-28T16:52:17.090Z,101820.84
2022-10-28T16:54:44.918Z,101832.78
2022-10-28T16:57:14.489Z,101836.59
2022-10-28T16:59:42.258Z,101839.31
2022-10-28T17:02:16.036Z,101845.00
2022-10-28T17:04:43.837Z,101839.81
2022-10-28T17:07:14.956Z,101827.19
2022-10-28T17:09:42.754Z,101850.69
2022-10-28T17:12:15.328Z,101863.47
2022-10-28T17:14:43.368Z,101864.53
2022-10-28T17:17:11.588Z,101860.66
2022-10-28T17:19:39.693Z,101868.31
2022-10-28T17:22:10.079Z,101871.28
2022-10-28T17:24:38.019Z,101877.31
2022-10-28T17:27:06.176Z,101875.66
2022-10-28T17:29:35.360Z,101866.09
2022-10-28T17:32:03.371Z,101882.16
2022-10-28T17:34:31.105Z,101882.16
2022-10-28T17:36:58.844Z,101877.81
2022-10-28T17:39:26.757Z,101879.47
2022-10-28T17:41:54.732Z,101883.25
2022-10-28T17:44:22.752Z,101892.22
2022-10-28T17:46:52.140Z,101901.47
2022-10-28T17:49:20.234Z,101907.97
2022-10-28T17:51:47.897Z,101914.22
2022-10-28T17:54:15.635Z,101908.22
2022-10-28T17:56:43.366Z,101917.44
2022-10-28T17:59:11.048Z,101927.50
2022-10-28T18:01:38.808Z,101927.50
2022-10-28T18:04:08.430Z,101934.84
2022-10-28T18:06:36.162Z,101920.66
2022-10-28T18:09:03.911Z,101926.09
2022-10-28T18:11:33.939Z,101924.44
2022-10-28T18:14:05.216Z,101917.34
2022-10-28T18:16:33.680Z,101928.22
2022-10-28T18:19:05.884Z,101924.94
2022-10-28T18:21:35.182Z,101927.66
2022-10-28T18:24:04.561Z,101933.09
2022-10-28T18:26:32.993Z,101929.78
2022-10-28T18:29:03.869Z,101935.47
2022-10-28T18:31:32.984Z,101943.06
2022-10-28T18:34:01.399Z,101953.94
2022-10-28T18:36:30.816Z,101944.94
2022-10-28T18:38:59.810Z,101951.44
2022-10-28T18:41:29.588Z,101948.97
2022-10-28T18:43:58.282Z,101956.31
2022-10-28T18:46:26.493Z,101954.66
2022-10-28T18:48:54.675Z,101953.84
2022-10-28T18:51:22.557Z,101950.53
2022-10-28T18:53:51.220Z,101946.41
2022-10-28T18:56:22.218Z,101951.84
2022-10-28T18:58:51.534Z,101953.72
2022-10-28T19:01:21.723Z,101962.13
2022-10-28T19:03:52.833Z,101959.41
2022-10-28T19:06:21.646Z,101956.09
2022-10-28T19:08:53.877Z,101954.47
2022-10-28T19:11:25.692Z,101952.81
2022-10-28T19:13:53.382Z,101948.44
2022-10-28T19:16:21.036Z,101950.34
2022-10-28T19:18:49.256Z,101964.97
2022-10-28T19:21:17.971Z,101972.09
2022-10-28T19:23:45.637Z,101965.81
2022-10-28T19:26:13.769Z,101970.06
2022-10-28T19:28:44.345Z,101973.34
2022-10-28T19:31:13.875Z,101979.63
2022-10-28T19:33:43.340Z,101971.72
2022-10-28T19:36:15.184Z,101969.22
2022-10-28T19:38:42.813Z,101973.84
2022-10-28T19:41:12.076Z,101957.91
2022-10-28T19:43:40.272Z,101977.88
2022-10-28T19:46:11.858Z,101978.94
2022-10-28T19:48:40.700Z,101973.50
2022-10-28T19:51:09.372Z,101964.75
2022-10-28T19:53:37.074Z,101968.53
2022-10-28T19:56:05.589Z,101962.75
2022-10-28T19:58:34.815Z,101980.47
2022-10-28T20:01:04.725Z,101982.38
2022-10-28T20:03:35.141Z,101995.38
2022-10-28T20:06:06.665Z,102000.00
2022-10-28T20:08:36.233Z,102004.59
2022-10-28T20:11:06.528Z,102008.38
2022-10-28T20:13:34.966Z,102013.00
2022-10-28T20:16:04.125Z,102017.59
2022-10-28T20:18:34.113Z,102011.56
2022-10-28T20:21:06.126Z,102018.91
2022-10-28T20:23:35.871Z,102006.63
2022-10-28T20:26:04.661Z,102010.41
2022-10-28T20:28:32.813Z,102015.00
2022-10-28T20:31:01.839Z,102025.06
2022-10-28T20:33:31.169Z,102033.44
2022-10-28T20:36:00.435Z,102036.41
2022-10-28T20:38:28.989Z,102046.44
2022-10-28T20:40:58.375Z,102054.00
2022-10-28T20:43:27.480Z,102050.47
2022-10-28T20:45:56.490Z,102059.72
2022-10-28T20:48:24.451Z,102060.78
2022-10-28T20:50:54.032Z,102062.91
2022-10-28T20:53:24.852Z,102060.44
2022-10-28T20:55:54.530Z,102070.47
2022-10-28T20:58:24.025Z,102065.03
2022-10-28T21:00:53.129Z,102065.50
2022-10-28T21:03:21.441Z,102069.28
2022-10-28T21:05:49.595Z,102072.00
2022-10-28T21:08:17.242Z,102074.94
2022-10-28T21:10:46.445Z,102080.16
2022-10-28T21:13:14.102Z,102080.38
2022-10-28T21:15:44.860Z,102077.91
2022-10-28T21:18:13.018Z,102083.09
2022-10-28T21:20:41.212Z,102075.19
2022-10-28T21:23:08.904Z,102072.47
2022-10-28T21:25:36.583Z,102075.19
2022-10-28T21:28:05.949Z,102062.66
2022-10-28T21:30:33.701Z,102070.22
2022-10-28T21:33:03.522Z,102073.78
2022-10-28T21:35:31.208Z,102073.19
2022-10-28T21:37:58.987Z,102076.72
2022-10-28T21:40:26.762Z,102067.16
2022-10-28T21:42:54.385Z,102072.59
2022-10-28T21:45:24.236Z,102069.88
2022-10-28T21:47:55.469Z,102066.56
2022-10-28T21:50:23.514Z,102069.50
2022-10-28T21:52:51.233Z,102070.56
2022-10-28T21:55:26.697Z,102064.31
2022-10-28T21:58:06.582Z,102067.28
2022-10-28T22:00:35.608Z,102054.03
2022-10-28T22:03:03.256Z,102066.69
2022-10-28T22:05:30.889Z,102074.81
2022-10-28T22:07:59.144Z,102072.34
2022-10-28T22:10:28.598Z,102076.94
2022-10-28T22:12:56.698Z,102078.84
2022-10-28T22:15:24.658Z,102073.63
2022-10-28T22:17:53.989Z,102078.47
2022-10-28T22:20:22.016Z,102077.66
2022-10-28T22:22:50.889Z,102083.09
2022-10-28T22:25:18.548Z,102078.72
2022-10-28T22:27:46.211Z,102080.84
2022-10-28T22:30:15.277Z,102083.78
2022-10-28T22:32:42.920Z,102078.34
2022-10-28T22:35:12.053Z,102078.59
2022-10-28T22:37:39.707Z,102084.03
2022-10-28T22:40:08.657Z,102084.25
2022-10-28T22:42:37.145Z,102083.66
2022-10-28T22:45:05.250Z,102086.38
2022-10-28T22:47:32.950Z,102087.44
2022-10-28T22:50:00.618Z,102097.47
2022-10-28T22:52:29.642Z,102104.78
2022-10-28T22:54:57.339Z,102106.91
2022-10-28T22:57:25.090Z,102116.94
2022-10-28T22:59:52.816Z,102116.34
2022-10-28T23:02:20.894Z,102097.34
2022-10-28T23:04:48.731Z,102094.63
2022-10-28T23:07:16.403Z,102081.28
2022-10-28T23:09:45.559Z,102069.59
2022-10-28T23:12:13.713Z,102066.88
2022-10-28T23:14:41.415Z,102081.50
2022-10-28T23:17:09.443Z,102079.63
2022-10-28T23:19:37.203Z,102083.41
2022-10-28T23:22:04.898Z,102082.34
2022-10-28T23:24:32.571Z,102074.91
2022-10-28T23:27:01.643Z,102075.50
2022-10-28T23:29:29.322Z,102078.44
2022-10-28T23:31:57.003Z,102089.31
2022-10-28T23:34:26.434Z,102087.66
2022-10-28T23:36:54.241Z,102091.19
2022-10-28T23:39:22.023Z,102097.69
2022-10-28T23:41:49.766Z,102094.13
2022-10-28T23:44:18.858Z,102089.75
2022-10-28T23:46:46.531Z,102089.75
2022-10-28T23:49:14.372Z,102091.66
2022-10-28T23:51:42.050Z,102098.97
2022-10-28T23:54:09.742Z,102091.66
2022-10-28T23:56:37.371Z,102092.72
2022-10-28T23:59:05.044Z,102088.34
